Time;durP1;ratioP1;P1;durP2;ratioP2;P2;SDS_P1;SDS_P2;PMS_P1;PMS_P2;Temp;Humidity;BMP_temperature;BMP_pressure;BME280_temperature;BME280_humidity;BME280_pressure;Samples;Min_cycle;Max_cycle;Signal;HPM_P1;HPM_P2
2023/03/18 00:01:41;;;;;;;31.30;11.30;;;;;;;2.78;60.83;100252.34;106949;1273;22534;-58
2023/03/18 00:04:12;;;;;;;32.10;12.10;;;;;;;2.77;60.93;100252.69;106871;1271;22515;-57
2023/03/18 00:06:43;;;;;;;32.60;11.10;;;;;;;2.76;60.86;100244.13;106760;1271;22688;-58
2023/03/18 00:09:15;;;;;;;32.60;13.10;;;;;;;2.72;60.86;100250.65;106832;1266;24189;-60
2023/03/18 00:11:46;;;;;;;34.90;13.60;;;;;;;2.70;60.91;100249.29;106942;1279;22483;-57
2023/03/18 00:14:18;;;;;;;37.30;14.30;;;;;;;2.70;61.04;100249.13;106752;1278;22524;-58
2023/03/18 00:16:49;;;;;;;32.90;13.60;;;;;;;2.70;61.00;100244.97;106858;1267;22738;-58
2023/03/18 00:19:21;;;;;;;33.80;13.90;;;;;;;2.69;61.14;100244.10;106803;1278;25352;-58
2023/03/18 00:21:52;;;;;;;33.30;13.30;;;;;;;2.70;61.19;100240.71;106804;1278;26582;-59
2023/03/18 00:24:23;;;;;;;30.40;12.70;;;;;;;2.70;61.09;100229.92;106918;1272;27434;-58
2023/03/18 00:26:54;;;;;;;28.00;10.90;;;;;;;2.70;61.15;100228.96;106909;1278;22535;-58
2023/03/18 00:29:26;;;;;;;29.60;11.00;;;;;;;2.69;61.23;100228.61;106881;1272;22510;-59
2023/03/18 00:31:57;;;;;;;31.30;11.60;;;;;;;2.67;61.23;100224.30;106935;1279;25407;-59
2023/03/18 00:34:28;;;;;;;29.70;11.20;;;;;;;2.66;61.39;100225.20;106829;1277;23155;-60
2023/03/18 00:37:00;;;;;;;30.20;11.60;;;;;;;2.64;61.42;100222.10;106841;1273;22548;-58
2023/03/18 00:39:31;;;;;;;27.20;10.90;;;;;;;2.64;61.58;100219.19;106883;1278;24186;-57
2023/03/18 00:42:09;;;;;;;30.10;11.00;;;;;;;2.62;61.65;100213.63;106950;1278;22543;-58
2023/03/18 00:44:42;;;;;;;27.80;10.80;;;;;;;2.60;61.64;100214.16;106799;1278;22631;-59
2023/03/18 00:47:13;;;;;;;31.20;11.60;;;;;;;2.55;61.66;100213.13;106971;1279;22540;-58
2023/03/18 00:49:44;;;;;;;32.40;11.60;;;;;;;2.52;61.76;100212.75;106782;1278;24194;-59
2023/03/18 00:52:16;;;;;;;28.80;9.90;;;;;;;2.48;61.83;100215.02;106876;1278;22524;-59
2023/03/18 00:54:48;;;;;;;28.90;11.20;;;;;;;2.44;61.87;100219.02;107169;1276;22579;-60
2023/03/18 00:57:19;;;;;;;29.00;9.90;;;;;;;2.40;61.91;100223.12;107315;1271;22552;-58
2023/03/18 00:59:51;;;;;;;28.70;11.70;;;;;;;2.37;61.98;100217.83;106870;1278;22487;-60
2023/03/18 01:02:23;;;;;;;27.60;10.40;;;;;;;2.35;62.02;100217.15;106813;1279;25434;-58
2023/03/18 01:04:55;;;;;;;31.80;10.40;;;;;;;2.33;62.06;100214.39;106606;1278;391095;-60
2023/03/18 01:07:27;;;;;;;26.20;11.10;;;;;;;2.30;62.16;100219.72;106868;1278;24218;-57
2023/03/18 01:09:58;;;;;;;30.10;10.00;;;;;;;2.26;62.14;100218.68;106753;1278;22522;-57
2023/03/18 01:12:29;;;;;;;26.80;10.80;;;;;;;2.25;62.36;100223.51;106853;1278;22808;-57
2023/03/18 01:15:01;;;;;;;26.20;9.00;;;;;;;2.22;62.32;100226.24;106818;1278;24155;-57
2023/03/18 01:17:33;;;;;;;25.10;9.80;;;;;;;2.19;62.23;100223.69;106963;1267;22527;-60
2023/03/18 01:20:04;;;;;;;26.50;10.50;;;;;;;2.17;62.40;100226.89;106845;1276;23151;-58
2023/03/18 01:22:35;;;;;;;31.40;10.60;;;;;;;2.15;62.46;100227.08;106852;1277;23500;-59
2023/03/18 01:25:09;;;;;;;26.70;10.20;;;;;;;2.14;62.58;100226.48;106776;1278;24314;-59
2023/03/18 01:27:40;;;;;;;28.70;10.40;;;;;;;2.13;62.66;100223.56;106867;1276;25292;-58
2023/03/18 01:30:14;;;;;;;22.10;8.50;;;;;;;2.13;62.71;100220.42;106817;1272;25577;-57
2023/03/18 01:32:45;;;;;;;31.20;11.10;;;;;;;2.13;62.81;100220.35;106936;1278;22495;-58
2023/03/18 01:35:16;;;;;;;30.20;10.80;;;;;;;2.12;62.80;100219.42;106792;1264;24163;-58
2023/03/18 01:37:48;;;;;;;37.30;10.10;;;;;;;2.12;62.86;100221.23;106778;1278;22526;-58
2023/03/18 01:40:21;;;;;;;29.90;10.50;;;;;;;2.12;62.86;100220.61;106833;1276;24264;-59
2023/03/18 01:42:58;;;;;;;27.30;9.80;;;;;;;2.12;62.87;100218.64;106788;1276;24221;-58
2023/03/18 01:45:31;;;;;;;31.10;11.70;;;;;;;2.11;62.96;100218.11;106840;1268;22666;-59
2023/03/18 01:48:02;;;;;;;30.90;10.50;;;;;;;2.11;62.98;100218.59;106882;1278;22527;-58
2023/03/18 01:50:35;;;;;;;28.90;9.10;;;;;;;2.09;63.01;100219.65;107043;1276;24403;-58
2023/03/18 01:53:09;;;;;;;21.80;8.30;;;;;;;2.06;63.00;100218.77;107082;1279;23022;-58
2023/03/18 01:55:42;;;;;;;25.00;9.20;;;;;;;2.03;63.10;100218.20;106954;1276;25497;-60
2023/03/18 01:58:20;;;;;;;26.40;9.20;;;;;;;2.00;63.14;100220.75;106860;1278;22766;-58
2023/03/18 02:00:59;;;;;;;29.70;9.00;;;;;;;1.98;63.11;100219.38;106860;1260;22772;-58
2023/03/18 02:03:31;;;;;;;23.20;7.50;;;;;;;1.97;63.29;100219.17;106901;1272;22537;-58
2023/03/18 02:06:02;;;;;;;26.80;8.60;;;;;;;1.97;63.26;100219.86;106975;1278;25522;-58
2023/03/18 02:08:33;;;;;;;29.80;9.50;;;;;;;1.96;63.23;100213.11;106878;1278;22520;-59
2023/03/18 02:11:05;;;;;;;25.90;7.50;;;;;;;1.96;63.30;100214.63;106795;1265;22490;-57
2023/03/18 02:13:38;;;;;;;26.80;8.60;;;;;;;1.95;63.30;100210.09;106985;1278;22531;-58
2023/03/18 02:16:14;;;;;;;25.40;7.70;;;;;;;1.93;63.34;100212.30;106848;1278;25432;-57
2023/03/18 02:18:51;;;;;;;22.20;7.00;;;;;;;1.92;63.46;100209.12;106882;1276;24202;-58
2023/03/18 02:21:46;;;;;;;32.10;8.50;;;;;;;1.90;63.45;100215.84;106941;1273;22734;-58
2023/03/18 02:24:27;;;;;;;20.10;7.70;;;;;;;1.88;63.63;100219.02;106939;1278;22536;-59
2023/03/18 02:27:02;;;;;;;29.40;7.80;;;;;;;1.87;63.62;100218.64;106806;1278;23931;-58
2023/03/18 02:29:36;;;;;;;23.20;7.30;;;;;;;1.86;63.73;100218.04;107119;1264;22459;-59
2023/03/18 02:32:08;;;;;;;24.20;7.70;;;;;;;1.85;63.78;100218.13;106953;1277;24189;-56
2023/03/18 02:34:40;;;;;;;23.10;8.00;;;;;;;1.83;63.79;100217.45;106984;1276;23023;-58
2023/03/18 02:37:12;;;;;;;23.00;7.10;;;;;;;1.82;63.76;100218.33;106834;1275;22534;-60
2023/03/18 02:39:42;;;;;;;24.80;8.40;;;;;;;1.81;63.90;100219.92;107012;1267;22521;-58
2023/03/18 02:42:15;;;;;;;23.90;7.50;;;;;;;1.79;63.85;100220.11;106701;1278;22481;-60
2023/03/18 02:44:47;;;;;;;22.70;7.10;;;;;;;1.76;64.00;100220.17;106958;1267;22647;-60
2023/03/18 02:47:21;;;;;;;25.40;8.80;;;;;;;1.73;64.11;100221.39;106826;1278;25360;-60
2023/03/18 02:49:53;;;;;;;24.30;8.20;;;;;;;1.71;64.00;100223.80;106931;1271;25428;-60
2023/03/18 02:52:25;;;;;;;24.30;7.50;;;;;;;1.70;64.14;100223.76;106944;1275;22595;-59
2023/03/18 02:54:58;;;;;;;26.60;7.60;;;;;;;1.69;64.30;100221.64;106862;1273;24192;-58
2023/03/18 02:57:28;;;;;;;22.10;7.70;;;;;;;1.68;64.31;100223.47;106911;1272;22613;-62
2023/03/18 02:59:59;;;;;;;25.40;8.70;;;;;;;1.67;64.41;100220.71;107729;1278;25506;-59
2023/03/18 03:02:30;;;;;;;26.60;8.70;;;;;;;1.67;64.52;100216.95;107308;1260;24268;-59
2023/03/18 03:05:01;;;;;;;33.70;10.80;;;;;;;1.64;64.49;100218.24;106824;1273;22558;-58
2023/03/18 03:07:32;;;;;;;28.40;9.20;;;;;;;1.64;64.59;100216.13;106909;1278;22669;-59
2023/03/18 03:10:04;;;;;;;23.40;8.20;;;;;;;1.65;64.59;100221.85;106832;1274;22627;-59
2023/03/18 03:12:36;;;;;;;25.20;7.90;;;;;;;1.64;64.62;100223.28;106910;1257;22734;-59
2023/03/18 03:15:09;;;;;;;23.40;7.60;;;;;;;1.64;64.61;100223.52;106837;1264;23932;-60
2023/03/18 03:17:40;;;;;;;23.40;7.40;;;;;;;1.64;64.67;100224.23;107056;1278;25483;-60
2023/03/18 03:20:14;;;;;;;18.40;6.90;;;;;;;1.66;64.74;100222.00;106510;1264;25487;-61
2023/03/18 03:22:45;;;;;;;20.30;6.70;;;;;;;1.66;64.90;100223.02;107066;1278;25431;-60
2023/03/18 03:25:16;;;;;;;24.20;8.00;;;;;;;1.65;64.95;100223.51;106832;1278;22521;-60
2023/03/18 03:27:48;;;;;;;22.10;6.70;;;;;;;1.65;64.92;100217.77;106793;1279;22497;-58
2023/03/18 03:30:20;;;;;;;22.90;6.90;;;;;;;1.64;64.95;100215.34;106841;1273;22533;-60
2023/03/18 03:32:51;;;;;;;21.10;7.50;;;;;;;1.64;65.05;100214.71;107136;1278;24163;-61
2023/03/18 03:35:23;;;;;;;23.70;7.00;;;;;;;1.63;65.06;100220.23;106873;1276;22468;-60
2023/03/18 03:37:55;;;;;;;24.50;7.30;;;;;;;1.64;65.14;100222.49;106869;1264;25598;-59
2023/03/18 03:40:27;;;;;;;22.80;7.40;;;;;;;1.64;65.16;100218.48;106837;1278;25422;-60
2023/03/18 03:42:58;;;;;;;21.50;6.40;;;;;;;1.63;65.16;100221.02;107134;1273;22531;-60
2023/03/18 03:45:29;;;;;;;20.40;6.40;;;;;;;1.63;65.26;100219.36;106818;1274;22577;-60
2023/03/18 03:48:01;;;;;;;22.80;7.80;;;;;;;1.64;65.33;100217.79;106850;1278;25485;-60
2023/03/18 03:50:32;;;;;;;22.70;7.00;;;;;;;1.64;65.29;100220.45;107154;1272;23027;-59
2023/03/18 03:53:04;;;;;;;26.00;7.10;;;;;;;1.66;65.26;100218.85;106845;1267;22556;-59
2023/03/18 03:55:35;;;;;;;20.30;5.60;;;;;;;1.67;65.28;100220.34;106885;1276;22579;-60
2023/03/18 03:58:06;;;;;;;21.20;6.60;;;;;;;1.68;65.31;100224.88;106825;1278;26796;-60
2023/03/18 04:00:37;;;;;;;22.30;7.40;;;;;;;1.70;65.29;100221.16;106826;1260;25662;-59
2023/03/18 04:03:08;;;;;;;23.40;7.00;;;;;;;1.70;65.34;100222.56;106777;1278;25432;-61
2023/03/18 04:05:40;;;;;;;20.40;6.90;;;;;;;1.71;65.22;100226.95;106873;1276;24244;-61
2023/03/18 04:08:11;;;;;;;22.10;6.90;;;;;;;1.72;65.24;100225.99;106818;1278;22521;-59
2023/03/18 04:10:42;;;;;;;21.40;7.20;;;;;;;1.73;65.28;100234.63;106897;1276;25547;-60
2023/03/18 04:13:12;;;;;;;20.50;5.50;;;;;;;1.74;65.35;100233.58;106801;1277;22522;-60
2023/03/18 04:15:43;;;;;;;20.90;7.00;;;;;;;1.75;65.33;100224.27;106877;1273;22543;-59
2023/03/18 04:18:15;;;;;;;19.90;6.60;;;;;;;1.75;65.45;100222.55;106858;1278;23286;-60
2023/03/18 04:20:46;;;;;;;23.90;8.00;;;;;;;1.74;65.39;100226.82;106875;1278;22525;-59
2023/03/18 04:23:18;;;;;;;19.30;6.60;;;;;;;1.73;65.44;100229.74;106841;1264;22544;-62
2023/03/18 04:25:49;;;;;;;19.70;5.60;;;;;;;1.74;65.49;100235.00;106829;1278;25573;-60
2023/03/18 04:28:20;;;;;;;18.70;5.90;;;;;;;1.75;65.49;100238.98;106825;1278;28043;-59
2023/03/18 04:30:51;;;;;;;16.50;5.80;;;;;;;1.76;65.50;100245.80;106819;1271;22560;-58
2023/03/18 04:33:22;;;;;;;16.70;4.90;;;;;;;1.77;65.63;100241.63;106864;1274;25411;-60
2023/03/18 04:35:53;;;;;;;20.60;5.70;;;;;;;1.78;65.49;100244.34;106869;1274;22544;-59
2023/03/18 04:38:23;;;;;;;19.00;5.00;;;;;;;1.80;65.46;100242.21;106850;1273;22739;-59
2023/03/18 04:40:54;;;;;;;21.60;5.30;;;;;;;1.81;65.55;100245.80;106785;1277;22534;-59
2023/03/18 04:43:25;;;;;;;21.90;5.30;;;;;;;1.82;65.64;100246.23;106866;1277;22531;-61
2023/03/18 04:45:56;;;;;;;19.90;5.50;;;;;;;1.84;65.65;100242.37;106871;1278;24277;-60
2023/03/18 04:48:27;;;;;;;18.40;5.20;;;;;;;1.85;65.62;100246.28;106857;1278;25408;-60
2023/03/18 04:50:58;;;;;;;21.50;5.50;;;;;;;1.86;65.66;100242.88;106899;1278;24214;-59
2023/03/18 04:53:30;;;;;;;18.70;5.10;;;;;;;1.87;65.63;100244.27;106853;1277;25522;-61
2023/03/18 04:56:00;;;;;;;23.60;7.20;;;;;;;1.89;65.75;100239.83;106890;1278;24163;-60
2023/03/18 04:58:31;;;;;;;19.90;6.20;;;;;;;1.91;65.75;100239.02;106771;1272;22528;-61
2023/03/18 05:01:03;;;;;;;18.80;5.80;;;;;;;1.92;65.70;100238.84;106877;1267;25900;-59
2023/03/18 05:03:34;;;;;;;20.20;6.00;;;;;;;1.93;65.65;100235.59;107323;1264;25422;-61
2023/03/18 05:06:05;;;;;;;23.20;6.40;;;;;;;1.95;65.68;100239.49;107709;1278;22684;-58
2023/03/18 05:08:36;;;;;;;21.60;6.90;;;;;;;1.97;65.77;100240.48;107002;1278;22528;-58
2023/03/18 05:11:07;;;;;;;19.50;6.50;;;;;;;1.99;65.86;100241.30;106883;1277;22525;-61
2023/03/18 05:13:39;;;;;;;19.90;6.80;;;;;;;2.01;65.77;100239.92;106893;1267;22582;-58
2023/03/18 05:16:10;;;;;;;17.90;5.60;;;;;;;2.03;65.90;100236.20;106876;1276;24333;-62
2023/03/18 05:18:43;;;;;;;23.10;6.90;;;;;;;2.05;65.84;100235.30;106897;1273;24174;-60
2023/03/18 05:21:14;;;;;;;19.00;6.00;;;;;;;2.09;65.89;100230.83;106982;1272;24315;-61
2023/03/18 05:23:45;;;;;;;22.10;6.60;;;;;;;2.13;65.85;100234.45;106904;1278;22543;-61
2023/03/18 05:26:16;;;;;;;16.40;5.10;;;;;;;2.16;65.73;100236.98;106814;1278;22531;-60
2023/03/18 05:28:47;;;;;;;21.60;5.20;;;;;;;2.19;65.90;100240.77;106849;1257;22839;-60
2023/03/18 05:31:18;;;;;;;17.30;4.80;;;;;;;2.23;65.65;100241.17;106815;1273;25601;-60
2023/03/18 05:33:49;;;;;;;17.10;4.80;;;;;;;2.26;65.67;100242.46;106836;1271;24266;-61
2023/03/18 05:36:19;;;;;;;17.20;4.30;;;;;;;2.30;65.74;100247.34;106922;1272;22621;-59
2023/03/18 05:38:50;;;;;;;15.70;4.40;;;;;;;2.34;65.66;100249.06;106833;1278;24015;-59
2023/03/18 05:41:21;;;;;;;19.00;4.70;;;;;;;2.39;65.66;100249.60;106920;1278;22510;-60
2023/03/18 05:43:52;;;;;;;15.80;4.40;;;;;;;2.42;65.59;100254.73;106939;1271;22518;-59
2023/03/18 05:46:23;;;;;;;18.50;4.90;;;;;;;2.46;65.57;100254.66;106939;1278;23094;-59
2023/03/18 05:48:54;;;;;;;21.70;5.40;;;;;;;2.50;65.60;100249.30;106824;1277;22663;-58
2023/03/18 05:51:25;;;;;;;21.30;4.30;;;;;;;2.54;65.48;100251.04;106858;1272;23772;-60
2023/03/18 05:53:56;;;;;;;13.50;4.50;;;;;;;2.58;65.45;100247.34;106938;1278;23019;-58
2023/03/18 05:56:27;;;;;;;15.10;5.00;;;;;;;2.62;65.39;100243.39;106985;1267;25627;-58
2023/03/18 05:58:58;;;;;;;14.80;3.70;;;;;;;2.65;65.54;100243.95;106984;1278;25427;-60
2023/03/18 06:01:30;;;;;;;15.40;4.50;;;;;;;2.69;65.49;100247.04;106941;1263;24302;-58
2023/03/18 06:04:01;;;;;;;15.60;4.10;;;;;;;2.73;65.67;100251.27;106811;1279;22523;-58
2023/03/18 06:06:31;;;;;;;14.20;3.70;;;;;;;2.78;65.67;100251.48;106913;1264;25784;-59
2023/03/18 06:09:02;;;;;;;14.90;3.90;;;;;;;2.82;65.62;100253.14;106904;1278;22541;-59
2023/03/18 06:11:33;;;;;;;16.90;3.60;;;;;;;2.85;65.52;100255.51;107009;1276;22521;-59
2023/03/18 06:14:05;;;;;;;16.30;3.80;;;;;;;2.89;65.54;100251.96;106848;1264;24292;-60
2023/03/18 06:16:37;;;;;;;16.00;3.60;;;;;;;2.94;65.56;100254.60;107055;1277;22541;-60
2023/03/18 06:19:10;;;;;;;15.70;3.90;;;;;;;2.98;65.54;100258.23;107010;1271;24222;-60
2023/03/18 06:21:41;;;;;;;18.10;4.50;;;;;;;3.02;65.57;100258.27;107044;1267;22559;-59
2023/03/18 06:24:13;;;;;;;14.00;3.80;;;;;;;3.08;65.39;100258.55;106917;1272;22525;-60
2023/03/18 06:26:45;;;;;;;16.40;3.80;;;;;;;3.14;65.35;100253.94;106977;1278;22524;-59
2023/03/18 06:29:17;;;;;;;15.50;3.90;;;;;;;3.20;65.55;100252.53;106985;1275;22661;-59
2023/03/18 06:31:48;;;;;;;13.90;3.50;;;;;;;3.25;65.58;100254.77;106880;1274;25247;-59
2023/03/18 06:34:20;;;;;;;20.90;5.00;;;;;;;3.32;65.45;100263.28;106910;1278;25292;-59
2023/03/18 06:36:51;;;;;;;19.30;5.30;;;;;;;3.38;65.33;100263.22;106845;1267;22533;-58
2023/03/18 06:39:22;;;;;;;18.40;6.20;;;;;;;3.44;65.38;100265.52;106944;1278;22542;-59
2023/03/18 06:41:54;;;;;;;18.90;4.90;;;;;;;3.51;65.24;100266.94;106955;1274;24334;-59
2023/03/18 06:44:25;;;;;;;14.60;4.00;;;;;;;3.57;64.99;100265.93;106911;1267;22531;-58
2023/03/18 06:46:56;;;;;;;14.00;3.70;;;;;;;3.63;64.85;100267.58;106989;1278;24188;-56
2023/03/18 06:49:27;;;;;;;16.30;3.70;;;;;;;3.72;64.62;100267.14;107073;1265;24260;-59
2023/03/18 06:51:59;;;;;;;13.60;2.90;;;;;;;3.82;64.51;100266.89;106777;1271;24304;-63
2023/03/18 06:54:30;;;;;;;14.40;4.00;;;;;;;3.91;64.69;100269.49;106827;1270;22724;-58
2023/03/18 06:57:01;;;;;;;24.00;7.10;;;;;;;4.00;64.70;100269.34;106826;1278;25476;-58
2023/03/18 06:59:32;;;;;;;26.20;6.90;;;;;;;4.08;64.47;100268.73;106812;1271;25296;-59
2023/03/18 07:02:04;;;;;;;18.10;4.20;;;;;;;4.18;63.87;100271.89;106844;1267;22557;-59
2023/03/18 07:04:34;;;;;;;14.50;3.40;;;;;;;4.30;63.44;100275.35;106864;1270;23244;-65
2023/03/18 07:07:08;;;;;;;18.70;4.50;;;;;;;4.42;62.83;100276.13;106724;1276;22677;-60
2023/03/18 07:09:39;;;;;;;17.70;4.40;;;;;;;4.54;62.81;100275.33;106825;1267;25619;-60
2023/03/18 07:12:12;;;;;;;12.80;4.00;;;;;;;4.65;62.70;100274.92;106219;1268;24292;-59
2023/03/18 07:14:44;;;;;;;15.60;3.30;;;;;;;4.77;62.24;100276.64;106248;1268;24311;-59
2023/03/18 07:17:15;;;;;;;14.20;3.10;;;;;;;4.87;62.29;100276.83;106265;1276;22533;-60
2023/03/18 07:19:47;;;;;;;15.80;3.80;;;;;;;4.94;62.13;100275.04;106298;1264;22541;-64
2023/03/18 07:22:18;;;;;;;11.00;2.90;;;;;;;5.01;61.69;100280.98;106357;1271;24212;-59
2023/03/18 07:24:50;;;;;;;15.40;3.50;;;;;;;5.09;61.59;100283.44;106172;1275;22523;-57
2023/03/18 07:27:22;;;;;;;16.20;3.00;;;;;;;5.17;61.76;100277.60;106511;1272;25315;-60
2023/03/18 07:29:53;;;;;;;11.60;3.40;;;;;;;5.24;61.26;100280.53;106200;1276;23011;-60
2023/03/18 07:32:24;;;;;;;16.20;3.90;;;;;;;5.34;61.02;100283.48;106214;1271;22605;-62
2023/03/18 07:34:55;;;;;;;14.60;3.70;;;;;;;5.42;60.74;100285.36;106224;1263;22760;-61
2023/03/18 07:37:27;;;;;;;15.00;3.50;;;;;;;5.49;60.79;100289.48;108237;1264;22522;-61
2023/03/18 07:39:58;;;;;;;16.80;4.40;;;;;;;5.57;60.80;100287.98;106047;1271;22534;-60
2023/03/18 07:42:29;;;;;;;16.70;5.20;;;;;;;5.64;60.67;100285.11;106221;1256;22527;-60
2023/03/18 07:45:00;;;;;;;19.00;4.90;;;;;;;5.72;60.07;100287.64;106295;1278;22531;-63
2023/03/18 07:47:31;;;;;;;17.30;5.70;;;;;;;5.82;60.02;100287.18;106196;1278;22536;-60
2023/03/18 07:50:03;;;;;;;12.50;3.80;;;;;;;5.89;59.86;100289.44;106269;1260;22527;-61
2023/03/18 07:52:34;;;;;;;15.10;4.40;;;;;;;5.99;59.53;100291.30;106068;1276;22527;-61
2023/03/18 07:55:08;;;;;;;11.90;3.20;;;;;;;6.10;59.34;100290.30;106130;1264;25380;-60
2023/03/18 07:57:39;;;;;;;12.10;3.00;;;;;;;6.21;58.93;100292.77;106124;1278;22537;-60
2023/03/18 08:00:13;;;;;;;13.00;3.10;;;;;;;6.32;57.92;100293.40;106315;1271;22523;-60
2023/03/18 08:02:44;;;;;;;14.40;2.60;;;;;;;6.44;57.98;100294.04;106359;1264;22539;-58
2023/03/18 08:05:17;;;;;;;15.00;3.40;;;;;;;6.55;57.40;100296.40;106369;1278;25414;-59
2023/03/18 08:07:51;;;;;;;11.00;2.30;;;;;;;6.68;56.57;100298.72;106421;1264;22641;-66
2023/03/18 08:10:22;;;;;;;13.30;3.40;;;;;;;6.79;56.86;100298.33;106158;1264;22535;-59
2023/03/18 08:12:53;;;;;;;9.40;2.10;;;;;;;6.86;56.72;100295.52;106072;1272;22563;-59
2023/03/18 08:15:25;;;;;;;14.30;2.70;;;;;;;6.96;56.44;100297.92;106010;1264;22524;-59
2023/03/18 08:17:56;;;;;;;12.60;2.90;;;;;;;7.06;56.21;100296.73;106042;1277;24624;-59
2023/03/18 08:20:27;;;;;;;13.00;3.10;;;;;;;7.14;56.13;100295.42;106164;1264;24251;-60
2023/03/18 08:22:59;;;;;;;15.90;4.50;;;;;;;7.21;56.48;100297.83;106171;1265;22648;-59
2023/03/18 08:25:30;;;;;;;10.90;3.30;;;;;;;7.29;56.40;100291.89;106282;1263;22531;-59
2023/03/18 08:28:01;;;;;;;11.50;2.60;;;;;;;7.36;56.07;100295.91;106073;1263;22527;-60
2023/03/18 08:30:32;;;;;;;15.20;3.20;;;;;;;7.44;55.85;100299.89;106128;1278;24368;-59
2023/03/18 08:33:03;;;;;;;12.70;3.50;;;;;;;7.51;55.40;100296.98;106175;1275;22539;-61
2023/03/18 08:35:34;;;;;;;11.90;2.90;;;;;;;7.63;55.30;100294.53;106171;1267;25473;-59
2023/03/18 08:38:05;;;;;;;11.30;3.10;;;;;;;7.76;54.90;100298.46;106082;1278;22653;-59
2023/03/18 08:40:36;;;;;;;14.20;2.90;;;;;;;7.86;53.96;100298.68;106229;1265;24248;-59
2023/03/18 08:43:07;;;;;;;11.00;2.70;;;;;;;7.97;53.89;100301.94;106138;1267;25432;-59
2023/03/18 08:45:39;;;;;;;12.60;2.70;;;;;;;8.08;53.91;100294.98;106083;1278;22536;-62
2023/03/18 08:48:12;;;;;;;9.70;2.60;;;;;;;8.18;52.56;100295.81;106269;1271;23790;-58
2023/03/18 08:50:43;;;;;;;11.60;2.50;;;;;;;8.28;52.39;100295.10;106092;1278;22616;-59
2023/03/18 08:53:14;;;;;;;10.10;2.30;;;;;;;8.40;52.69;100292.56;106124;1271;22743;-60
2023/03/18 08:55:47;;;;;;;11.10;2.30;;;;;;;8.49;52.35;100289.69;106064;1278;22607;-67
2023/03/18 08:58:18;;;;;;;9.90;2.20;;;;;;;8.58;52.21;100292.12;106189;1277;25374;-58
2023/03/18 09:00:49;;;;;;;16.90;4.20;;;;;;;8.66;51.48;100294.35;106456;1278;25250;-55
2023/03/18 09:03:20;;;;;;;22.40;5.50;;;;;;;8.73;51.73;100291.87;106270;1278;22543;-58
2023/03/18 09:05:51;;;;;;;16.70;3.70;;;;;;;8.80;51.59;100292.92;106158;1278;24410;-59
2023/03/18 09:08:22;;;;;;;16.10;3.60;;;;;;;8.88;51.54;100292.85;106299;1271;22524;-59
2023/03/18 09:10:55;;;;;;;17.10;3.80;;;;;;;8.97;51.50;100286.95;106121;1264;24280;-56
2023/03/18 09:13:26;;;;;;;15.50;3.60;;;;;;;9.06;51.42;100289.66;108190;1264;22570;-59
2023/03/18 09:15:58;;;;;;;15.40;2.80;;;;;;;9.15;51.38;100289.02;106205;1264;22538;-61
2023/03/18 09:18:29;;;;;;;12.70;3.40;;;;;;;9.23;51.45;100286.70;106200;1278;22652;-58
2023/03/18 09:21:00;;;;;;;10.50;2.80;;;;;;;9.33;51.50;100281.13;106206;1271;24219;-68
2023/03/18 09:23:31;;;;;;;12.90;2.70;;;;;;;9.45;51.26;100287.04;106186;1271;25368;-56
2023/03/18 09:26:03;;;;;;;9.10;2.30;;;;;;;9.56;50.78;100284.33;106283;1271;22751;-57
2023/03/18 09:28:35;;;;;;;13.10;3.60;;;;;;;9.68;50.26;100287.52;106353;1264;22684;-56
2023/03/18 09:31:06;;;;;;;14.00;3.70;;;;;;;9.81;50.06;100290.23;106222;1264;22526;-58
2023/03/18 09:33:37;;;;;;;11.40;2.80;;;;;;;9.92;50.30;100287.46;106232;1278;22649;-57
2023/03/18 09:36:10;;;;;;;13.30;3.20;;;;;;;10.03;50.12;100286.65;106206;1271;22579;-58
2023/03/18 09:38:41;;;;;;;13.40;3.60;;;;;;;10.14;49.74;100291.58;106389;1279;23275;-57
2023/03/18 09:41:23;;;;;;;15.80;3.80;;;;;;;10.23;49.85;100291.27;106221;1278;25365;-55
2023/03/18 09:44:17;;;;;;;14.90;3.00;;;;;;;10.33;49.42;100288.52;106313;1264;22540;-58
2023/03/18 09:47:05;;;;;;;15.90;3.60;;;;;;;10.42;49.41;100283.69;106202;1276;24353;-56
2023/03/18 09:49:43;;;;;;;11.80;3.70;;;;;;;10.49;49.43;100281.45;106167;1263;25366;-58
2023/03/18 09:52:24;;;;;;;13.00;3.10;;;;;;;10.55;49.36;100284.27;106036;1274;22530;-56
2023/03/18 09:54:57;;;;;;;;;;;;;;;10.66;49.20;100284.11;106301;1274;24284;-59
2023/03/18 09:57:33;;;;;;;10.90;2.90;;;;;;;10.73;49.04;100285.71;106470;1256;25299;-57
2023/03/18 10:00:16;;;;;;;12.10;3.00;;;;;;;10.82;48.40;100278.84;106106;1271;24249;-57
2023/03/18 10:02:52;;;;;;;10.90;3.00;;;;;;;10.92;48.66;100280.30;106369;1278;22501;-58
2023/03/18 10:05:29;;;;;;;12.70;2.60;;;;;;;11.05;48.47;100279.39;106189;1278;22694;-57
2023/03/18 10:08:04;;;;;;;11.90;3.20;;;;;;;11.16;48.17;100279.18;106154;1278;22521;-61
2023/03/18 10:10:40;;;;;;;12.10;2.50;;;;;;;11.26;48.13;100275.09;106320;1278;22758;-59
2023/03/18 10:13:19;;;;;;;12.20;2.70;;;;;;;11.35;47.41;100274.27;106197;1276;22564;-58
2023/03/18 10:15:55;;;;;;;15.50;3.50;;;;;;;11.44;47.45;100274.73;106098;1259;24284;-58
2023/03/18 10:18:30;;;;;;;12.50;2.50;;;;;;;11.50;46.99;100274.93;106353;1272;25344;-56
2023/03/18 10:21:17;;;;;;;10.20;2.50;;;;;;;11.58;47.07;100268.27;106253;1264;23002;-59
2023/03/18 10:23:59;;;;;;;14.50;3.30;;;;;;;11.66;46.91;100277.52;106185;1278;22538;-58
2023/03/18 10:26:34;;;;;;;11.90;2.60;;;;;;;11.72;46.79;100274.06;106673;1271;25374;-56
2023/03/18 10:29:19;;;;;;;13.10;3.60;;;;;;;11.75;46.36;100276.91;106151;1272;24393;-58
2023/03/18 10:32:03;;;;;;;11.90;2.90;;;;;;;11.77;46.03;100270.67;106251;1278;24547;-60
2023/03/18 10:34:41;;;;;;;14.00;3.70;;;;;;;11.81;46.06;100273.44;106149;1264;24259;-58
2023/03/18 10:37:23;;;;;;;10.10;2.70;;;;;;;11.86;45.63;100269.03;106338;1277;25314;-58
2023/03/18 10:39:56;;;;;;;14.30;2.90;;;;;;;11.90;45.12;100271.89;106201;1274;22655;-60
2023/03/18 10:42:30;;;;;;;12.40;3.30;;;;;;;11.93;45.61;100271.23;106076;1272;23095;-57
2023/03/18 10:45:13;;;;;;;11.60;2.60;;;;;;;11.98;45.74;100263.45;106211;1278;22514;-60
2023/03/18 10:47:51;;;;;;;14.70;3.20;;;;;;;12.02;45.16;100265.50;106087;1267;22527;-59
2023/03/18 10:50:29;;;;;;;13.20;3.70;;;;;;;12.07;45.14;100272.08;106066;1264;23032;-59
2023/03/18 10:53:07;;;;;;;9.50;2.60;;;;;;;12.08;44.80;100267.86;106191;1260;24505;-59
2023/03/18 10:55:45;;;;;;;13.50;2.90;;;;;;;12.08;44.88;100264.20;106203;1271;25965;-59
2023/03/18 10:58:18;;;;;;;11.30;2.70;;;;;;;12.12;44.68;100264.45;106162;1278;22579;-59
2023/03/18 11:00:50;;;;;;;11.00;2.90;;;;;;;12.16;44.50;100261.72;106255;1278;25352;-57
2023/03/18 11:03:28;;;;;;;11.80;3.20;;;;;;;12.23;44.40;100258.48;106276;1264;22602;-59
2023/03/18 11:06:01;;;;;;;15.20;4.10;;;;;;;12.30;44.08;100258.98;106353;1278;23730;-58
2023/03/18 11:08:38;;;;;;;14.40;3.70;;;;;;;12.38;44.44;100256.80;106365;1267;25355;-58
2023/03/18 11:11:26;;;;;;;13.20;3.40;;;;;;;12.44;44.28;100250.44;106315;1271;22528;-59
2023/03/18 11:14:00;;;;;;;18.80;5.50;;;;;;;12.50;43.83;100254.08;106076;1278;25454;-60
2023/03/18 11:16:41;;;;;;;21.10;4.90;;;;;;;12.58;43.86;100244.65;106607;1276;22527;-61
2023/03/18 11:19:28;;;;;;;11.00;3.10;;;;;;;12.64;43.43;100243.89;106146;1265;22516;-57
2023/03/18 11:22:06;;;;;;;13.70;3.50;;;;;;;12.72;43.25;100246.13;106254;1278;22527;-59
2023/03/18 11:24:41;;;;;;;16.20;2.90;;;;;;;12.77;42.91;100243.06;106279;1264;22527;-58
2023/03/18 11:27:34;;;;;;;10.60;2.00;;;;;;;12.82;42.41;100238.92;106184;1271;22601;-59
2023/03/18 11:30:17;;;;;;;7.30;2.20;;;;;;;12.86;41.51;100238.56;106157;1277;26067;-60
2023/03/18 11:32:58;;;;;;;7.60;2.20;;;;;;;12.93;41.23;100232.73;106679;1278;25337;-59
2023/03/18 11:35:37;;;;;;;13.40;2.10;;;;;;;12.97;40.85;100235.36;106493;1264;22889;-59
2023/03/18 11:38:14;;;;;;;9.80;1.90;;;;;;;13.01;40.82;100226.28;106309;1264;25416;-59
2023/03/18 11:40:46;;;;;;;13.60;2.20;;;;;;;13.05;40.79;100219.09;106194;1271;22659;-61